Spokane International Airport
KGEG : now visible

Airfield :











YOU CAN JOIN US ON...

 
LOGIN :

Register | Disclaimer

   EN    FR    IT 

 









Legend :    VFR   Marginal VFR   IFR   Intensive IFR   Very Intensive IFR
Visi :
Ceiling :
>= 8 km
>= 3000ft
5 to 8 km
1000 to 3000 ft
1500m to 5 km
500 to 1000 ft
800 to 1500m
200 to 500 ft
< 800m
< 200 ft
Symbols :   Thunderstorms  Fog  Heavy snow  Heavy precipitations  Wind > 20 kt







- Airport Elevation : 2376 ft
- IATA code : GEG


KGEG - Spokane International

CURRENT METAR :
  • 162153Z 26007KT 10SM BKN015 BKN090 BKN200 13/09 A2982 RMK AO2 SLP093 T01280089

EXPIRED METARs :
  • 162147Z 26007KT 10SM BKN015 BKN090 BKN200 13/09 A2982 RMK AO2
  • 162113Z 23005KT 10SM BKN013 BKN070 BKN100 13/09 A2982 RMK AO2 T01280089
  • 162053Z 00000KT 10SM SCT009 SCT050 BKN080 12/09 A2982 RMK AO2 RAE34 SLP093 P0001 60007 T01220089 58002
  • 161953Z 24007KT 6SM -RA BR SCT008 OVC050 12/09 A2983 RMK AO2 SLP097 P0003 T01170094

TAF KGEG
Valid from the 16 at 22:00 until the 17 at 18:00 UTC


162138Z 1622/1718 24007KT P6SM VCSH BKN013 OVC070
TEMPO 1622/1624 -SHRA BKN040 OVC060
FM170000 21005KT P6SM VCSH BKN050 BKN100
FM170600 18007KT P6SM SCT030 BKN100
FM171200 19009KT P6SM FEW025 SCT100 BKN200
No reported NOTAMs for that airfield.



MET'MAP, your aeronautical weather chart ! - Copyright ORBIFLY December 2007 - Disclaimer

ORBIFLY MET'MAP TEAM :

Programming & Development : Alexandra Zaïnal
Concept & Development : Baudouin d'Aumeries
Co-Development & Prog : Marc-Olivier Méhu
Technical & hardware support : Manuel Goepfert

Contact : metmap@orbifly.com




SOURCES & CREDITS :

   NOAA       Earth
Advisory